Time;durP1;ratioP1;P1;durP2;ratioP2;P2;SDS_P1;SDS_P2;PMS_P1;PMS_P2;Temp;Humidity;BMP_temperature;BMP_pressure;BME280_temperature;BME280_humidity;BME280_pressure;Samples;Min_cycle;Max_cycle;Signal;HPM_P1;HPM_P2
2023/04/26 00:08:43;;;;;;;2.97;2.40;;;;;;;22.28;29.07;102103.16;20996187;28;20466;-68
2023/04/26 00:18:45;;;;;;;2.70;2.50;;;;;;;22.22;29.73;102114.50;20993506;28;20110;-67
2023/04/26 00:28:46;;;;;;;3.58;2.47;;;;;;;22.19;29.53;102110.28;20982069;28;20101;-68
2023/04/26 00:38:47;;;;;;;2.90;2.38;;;;;;;22.15;29.53;102125.88;21000007;28;20090;-67
2023/04/26 00:48:49;;;;;;;3.10;2.70;;;;;;;22.08;28.64;102126.03;21007838;28;20041;-69
2023/04/26 00:58:51;;;;;;;3.60;2.20;;;;;;;22.12;29.15;102147.84;20977496;28;20037;-68
2023/04/26 01:08:56;;;;;;;4.07;2.63;;;;;;;22.11;28.27;102162.84;20976025;28;20045;-68
2023/04/26 01:19:06;;;;;;;3.63;1.45;;;;;;;21.92;31.58;102138.09;20976165;28;20048;-67
2023/04/26 01:29:17;;;;;;;1.77;1.40;;;;;;;22.08;32.16;102169.78;20996873;28;20036;-67
2023/04/26 01:39:18;;;;;;;2.47;1.45;;;;;;;22.12;32.22;102175.72;20991610;28;20082;-67
2023/04/26 01:49:20;;;;;;;2.83;1.20;;;;;;;22.07;32.20;102162.53;20990200;28;20051;-66
2023/04/26 01:59:21;;;;;;;2.65;1.50;;;;;;;22.15;32.00;102172.41;20972811;28;20491;-66
2023/04/26 02:09:22;;;;;;;3.08;1.70;;;;;;;22.15;32.26;102170.47;20917119;28;20098;-67
2023/04/26 02:19:24;;;;;;;6.35;1.88;;;;;;;22.17;32.54;102190.56;20955127;28;20052;-68
2023/04/26 02:29:26;;;;;;;2.47;1.60;;;;;;;22.17;32.73;102179.41;20953140;28;20040;-67
2023/04/26 02:39:27;;;;;;;2.50;1.48;;;;;;;22.17;33.09;102171.03;20977402;28;20079;-68
2023/04/26 02:49:30;;;;;;;3.45;1.65;;;;;;;22.24;33.12;102173.66;20981196;28;20037;-67
2023/04/26 02:59:31;;;;;;;2.58;1.60;;;;;;;22.11;33.56;102163.69;20968545;28;20491;-68
2023/04/26 03:09:37;;;;;;;1.77;1.55;;;;;;;22.18;33.59;102175.53;20977139;28;20475;-67
2023/04/26 03:19:39;;;;;;;4.65;1.70;;;;;;;22.24;33.81;102182.84;20989421;28;20376;-69
2023/04/26 03:29:40;;;;;;;3.05;1.50;;;;;;;22.19;34.03;102177.22;20965243;28;20106;-66
2023/04/26 03:39:41;;;;;;;5.20;1.60;;;;;;;22.26;33.50;102186.22;20976835;28;20044;-68
2023/04/26 03:49:43;;;;;;;4.68;1.67;;;;;;;22.30;33.53;102189.31;21001364;28;20479;-68
2023/04/26 03:59:44;;;;;;;4.05;1.77;;;;;;;22.36;33.19;102193.00;20997139;28;20056;-69
2023/04/26 04:09:45;;;;;;;2.90;1.73;;;;;;;22.35;33.44;102196.91;21000760;28;20117;-69
2023/04/26 04:19:47;;;;;;;4.32;1.63;;;;;;;22.35;33.14;102202.47;20988528;28;20904;-70
2023/04/26 04:29:48;;;;;;;2.83;1.55;;;;;;;22.16;33.42;102166.56;21000706;28;20039;-69
2023/04/26 04:39:49;;;;;;;3.22;1.70;;;;;;;22.36;33.15;102206.94;20992014;28;20075;-69
2023/04/26 04:49:52;;;;;;;2.03;1.50;;;;;;;22.37;33.03;102208.66;20990025;28;20033;-70
2023/04/26 04:59:53;;;;;;;2.10;1.80;;;;;;;22.38;33.30;102213.97;20984002;28;20068;-70
2023/04/26 05:09:55;;;;;;;2.45;1.83;;;;;;;22.38;33.22;102208.38;20945517;28;20450;-70
2023/04/26 05:19:57;;;;;;;1.98;1.75;;;;;;;22.38;33.10;102213.13;20960019;28;20045;-70
2023/04/26 05:30:00;;;;;;;2.45;1.95;;;;;;;22.32;33.14;102193.56;20968520;28;20411;-69
2023/04/26 05:40:08;;;;;;;3.10;1.83;;;;;;;22.26;32.99;102185.38;20972415;28;20098;-69
2023/04/26 05:50:10;;;;;;;;;;;;;;;22.32;33.13;102187.97;20945186;28;20044;-69
2023/04/26 06:00:12;;;;;;;2.03;1.70;;;;;;;22.38;32.97;102191.66;20971913;28;20256;-68
2023/04/26 06:10:13;;;;;;;1.98;1.83;;;;;;;22.26;33.32;102177.00;20988793;28;20032;-70
2023/04/26 06:20:15;;;;;;;2.88;1.85;;;;;;;22.22;33.27;102171.13;20972299;28;20106;-70
2023/04/26 06:30:16;;;;;;;2.15;1.88;;;;;;;22.24;33.14;102173.66;20988733;28;20044;-70
2023/04/26 06:40:17;;;;;;;3.30;2.00;;;;;;;22.30;32.97;102172.59;20974718;28;20102;-70
2023/04/26 06:50:22;;;;;;;2.30;2.00;;;;;;;22.15;33.26;102147.31;20948354;28;20102;-70
2023/04/26 07:00:23;;;;;;;2.72;2.10;;;;;;;22.28;33.11;102174.81;20960452;28;20102;-69
2023/04/26 07:10:26;;;;;;;3.40;1.90;;;;;;;22.19;33.09;102149.34;20986804;28;20487;-70
2023/04/26 07:20:27;;;;;;;2.72;2.00;;;;;;;22.29;33.21;102176.50;20952328;28;20033;-69
2023/04/26 07:30:31;;;;;;;3.47;2.30;;;;;;;22.28;33.03;102172.03;20960988;28;20048;-70
2023/04/26 07:40:32;;;;;;;2.33;1.90;;;;;;;22.27;33.38;102161.97;20943242;28;20129;-70
2023/04/26 07:50:36;;;;;;;3.30;2.38;;;;;;;22.22;33.17;102148.81;20969252;28;20430;-70
2023/04/26 08:00:38;;;;;;;3.10;2.28;;;;;;;22.25;33.38;102162.22;20989602;28;20052;-69
2023/04/26 08:10:40;;;;;;;3.15;2.15;;;;;;;22.15;33.48;102153.75;20952274;28;20101;-70
2023/04/26 08:20:42;;;;;;;2.90;2.15;;;;;;;21.98;33.66;102144.56;20989699;28;20545;-71
2023/04/26 08:30:46;;;;;;;2.40;2.13;;;;;;;22.17;33.63;102173.81;20988984;28;20438;-69
2023/04/26 08:40:48;;;;;;;2.50;2.13;;;;;;;22.17;33.60;102173.81;20998765;28;20044;-69
2023/04/26 08:50:50;;;;;;;3.58;2.45;;;;;;;22.17;33.76;102167.41;20984490;28;20041;-69
2023/04/26 09:00:51;;;;;;;3.58;1.98;;;;;;;22.14;33.59;102174.38;20968141;28;20660;-70
2023/04/26 09:10:53;;;;;;;2.42;2.00;;;;;;;22.18;33.54;102192.25;20954833;28;20427;-69
2023/04/26 09:21:03;;;;;;;2.08;1.85;;;;;;;22.16;33.48;102215.91;20962463;28;20059;-69
2023/04/26 09:31:04;;;;;;;3.50;1.98;;;;;;;22.15;33.39;102209.50;20962411;28;20041;-70
2023/04/26 09:41:06;;;;;;;4.82;1.90;;;;;;;22.14;35.40;102218.97;20955557;28;20089;-70
2023/04/26 09:51:13;;;;;;;2.97;1.80;;;;;;;22.11;35.06;102219.44;20931891;28;20045;-70
2023/04/26 10:01:19;;;;;;;5.25;1.98;;;;;;;22.11;34.94;102252.91;20907471;28;20490;-71
2023/04/26 10:11:21;;;;;;;8.13;1.90;;;;;;;22.05;34.88;102240.84;20910795;28;20055;-71
2023/04/26 10:21:30;;;;;;;4.70;2.05;;;;;;;21.97;35.07;102255.22;20909348;28;20468;-71
2023/04/26 10:32:05;;;;;;;1.63;1.52;;;;;;;21.95;34.70;102288.09;20908626;28;20041;-71
2023/04/26 10:42:26;;;;;;;3.30;2.15;;;;;;;21.93;34.60;102295.00;20904197;28;20094;-71
2023/04/26 10:52:28;;;;;;;5.63;2.08;;;;;;;21.96;34.50;102300.06;20944567;28;20397;-69
2023/04/26 11:02:57;;;;;;;2.58;1.58;;;;;;;21.90;34.59;102301.06;20993481;28;20052;-69
2023/04/26 11:13:02;;;;;;;9.10;1.97;;;;;;;21.91;34.87;102308.34;20999131;28;20361;-71
2023/04/26 11:23:07;;;;;;;3.90;1.80;;;;;;;21.78;34.75;102285.31;20965568;28;20040;-69
2023/04/26 11:33:19;;;;;;;3.45;2.10;;;;;;;21.90;35.33;102295.50;21004558;28;20055;-69
2023/04/26 11:43:20;;;;;;;3.80;2.00;;;;;;;21.90;35.42;102288.00;20986219;28;20040;-69
2023/04/26 11:53:22;;;;;;;8.88;2.33;;;;;;;21.89;35.15;102293.81;20921295;28;20049;-67
2023/04/26 12:03:28;;;;;;;13.18;2.60;;;;;;;21.77;35.39;102275.25;20914825;28;20040;-68
2023/04/26 12:13:31;;;;;;;4.60;2.03;;;;;;;21.86;35.23;102291.56;20905937;28;20049;-68
2023/04/26 12:23:38;;;;;;;6.72;2.28;;;;;;;21.86;35.44;102275.69;20914419;28;20053;-68
2023/04/26 12:33:39;;;;;;;8.15;2.40;;;;;;;21.87;35.56;102279.31;20912664;28;20029;-69
2023/04/26 12:43:40;;;;;;;6.20;2.38;;;;;;;21.17;35.45;102164.53;20915857;28;20541;-69
2023/04/26 12:53:42;;;;;;;3.20;1.77;;;;;;;21.87;35.45;102279.31;20962794;28;20509;-69
2023/04/26 13:03:47;;;;;;;5.05;2.17;;;;;;;21.87;35.14;102296.03;20956111;28;20032;-69
2023/04/26 13:13:51;;;;;;;2.67;1.85;;;;;;;21.59;35.21;102258.81;20915203;28;20033;-69
2023/04/26 13:23:52;;;;;;;3.35;1.70;;;;;;;21.76;35.19;102273.59;20935556;28;20570;-68
2023/04/26 13:33:53;;;;;;;6.88;1.70;;;;;;;21.82;35.12;102280.91;20993933;28;20361;-69
2023/04/26 13:43:55;;;;;;;3.00;1.50;;;;;;;21.86;35.24;102289.63;20929105;28;20044;-70
2023/04/26 13:53:57;;;;;;;1.88;1.60;;;;;;;21.85;34.97;102299.03;20932147;28;20105;-70
2023/04/26 14:03:58;;;;;;;4.43;1.85;;;;;;;21.63;34.91;102304.56;20913084;28;20044;-69
2023/04/26 14:14:03;;;;;;;3.60;1.60;;;;;;;21.79;34.91;102356.66;20976247;28;20035;-70
2023/04/26 14:24:07;;;;;;;2.35;1.85;;;;;;;21.82;35.20;102345.00;20989943;28;20055;-70
2023/04/26 14:34:09;;;;;;;3.03;1.60;;;;;;;21.78;35.50;102304.81;20993707;28;20037;-70
2023/04/26 14:44:10;;;;;;;3.38;1.67;;;;;;;21.78;35.54;102282.53;21007388;28;20098;-70
2023/04/26 14:54:12;;;;;;;30.33;16.70;;;;;;;21.80;35.50;102266.38;21006711;28;20538;-70
2023/04/26 15:04:13;;;;;;;171.90;69.25;;;;;;;21.69;35.89;102238.63;21003450;28;20116;-70
2023/04/26 15:14:14;;;;;;;197.25;78.00;;;;;;;21.84;36.15;102250.00;21003416;28;20044;-70
2023/04/26 15:24:21;;;;;;;194.95;73.90;;;;;;;21.90;36.50;102248.13;20959751;28;20052;-70
2023/04/26 15:34:26;;;;;;;180.65;69.75;;;;;;;21.76;36.70;102217.84;20969126;28;20041;-69
2023/04/26 15:44:27;;;;;;;165.85;66.40;;;;;;;21.92;36.94;102265.44;20996384;28;20025;-70
2023/04/26 15:54:28;;;;;;;145.98;57.17;;;;;;;21.92;36.75;102254.31;20972873;28;20105;-69
2023/04/26 16:04:30;;;;;;;131.68;51.00;;;;;;;21.95;36.79;102223.97;20993031;28;20449;-70
2023/04/26 16:14:32;;;;;;;116.30;47.25;;;;;;;21.97;36.77;102220.94;20988768;28;20099;-70
2023/04/26 16:24:36;;;;;;;92.53;39.92;;;;;;;21.96;36.57;102217.28;20977016;28;20102;-69
2023/04/26 16:34:40;;;;;;;90.00;37.28;;;;;;;21.92;36.33;102182.69;20983039;28;20052;-69
2023/04/26 16:44:50;;;;;;;76.40;34.55;;;;;;;21.87;36.44;102185.41;20968474;28;20052;-69
2023/04/26 16:54:51;;;;;;;65.68;27.20;;;;;;;21.96;36.15;102185.81;20960361;28;20114;-69
2023/04/26 17:04:53;;;;;;;53.60;23.92;;;;;;;22.03;35.88;102180.88;20991342;28;20182;-69
2023/04/26 17:14:55;;;;;;;41.83;18.83;;;;;;;21.88;35.51;102136.91;20990826;28;20040;-69
2023/04/26 17:24:56;;;;;;;38.88;16.83;;;;;;;22.02;35.50;102160.50;20987144;28;20028;-69
2023/04/26 17:34:58;;;;;;;34.35;16.00;;;;;;;21.89;35.40;102121.03;20986052;28;20049;-69
2023/04/26 17:45:04;;;;;;;33.58;14.38;;;;;;;21.92;35.14;102104.66;20985967;28;20051;-71
2023/04/26 17:55:09;;;;;;;28.70;13.30;;;;;;;21.90;36.04;102094.84;20990116;28;20544;-69
2023/04/26 18:05:10;;;;;;;29.73;13.45;;;;;;;21.96;35.81;102099.41;20991397;28;20032;-69
2023/04/26 18:15:12;;;;;;;24.52;11.70;;;;;;;22.00;36.24;102095.84;20984457;28;20143;-69
2023/04/26 18:25:14;;;;;;;28.27;12.52;;;;;;;21.98;35.89;102091.59;20991325;28;20102;-69
2023/04/26 18:35:16;;;;;;;25.85;12.70;;;;;;;22.01;36.30;102082.75;20991614;28;20036;-69
2023/04/26 18:45:17;;;;;;;26.10;12.18;;;;;;;21.77;35.91;102030.06;20989450;28;20110;-71
2023/04/26 18:55:19;;;;;;;22.95;10.25;;;;;;;22.03;36.16;102053.47;20961681;28;20041;-72
2023/04/26 19:05:20;;;;;;;21.30;10.30;;;;;;;22.06;36.33;102043.78;20924619;28;20403;-72
2023/04/26 19:15:21;;;;;;;23.50;10.40;;;;;;;22.08;36.31;102041.53;20983642;28;20044;-72
2023/04/26 19:25:23;;;;;;;24.75;9.98;;;;;;;21.73;37.06;101978.75;20978022;28;20071;-72
2023/04/26 19:35:24;;;;;;;19.75;9.40;;;;;;;22.10;37.73;101989.19;20996286;28;20036;-75
2023/04/26 19:45:28;;;;;;;20.38;8.85;;;;;;;22.07;37.44;101967.41;21001302;28;20044;-75
2023/04/26 19:55:30;;;;;;;17.85;8.18;;;;;;;22.06;37.09;101957.34;21002218;28;20417;-75
2023/04/26 20:05:32;;;;;;;15.93;8.27;;;;;;;21.91;37.00;101930.19;21001678;28;20079;-75
2023/04/26 20:15:33;;;;;;;16.75;7.63;;;;;;;21.97;37.23;101908.78;21000529;28;20037;-75
2023/04/26 20:25:37;;;;;;;14.45;7.50;;;;;;;22.14;37.00;101917.06;21000980;28;20074;-75
2023/04/26 20:35:40;;;;;;;15.52;6.65;;;;;;;22.15;37.10;101896.44;20998515;28;20043;-76
2023/04/26 20:45:41;;;;;;;12.90;6.25;;;;;;;22.16;36.96;101904.50;20998643;28;20455;-75
2023/04/26 20:55:42;;;;;;;12.88;6.60;;;;;;;22.15;37.14;101902.84;20997684;28;20044;-75
2023/04/26 21:05:44;;;;;;;13.82;6.85;;;;;;;22.16;36.72;101903.69;20996590;28;20407;-75
2023/04/26 21:15:46;;;;;;;14.20;6.75;;;;;;;21.81;36.64;101852.09;20996642;28;20387;-75
2023/04/26 21:25:47;;;;;;;10.55;5.88;;;;;;;22.15;36.82;101914.00;20999604;28;20048;-75
2023/04/26 21:35:49;;;;;;;10.48;5.10;;;;;;;22.15;36.72;101924.31;21000301;28;20032;-76
2023/04/26 21:45:51;;;;;;;10.27;5.25;;;;;;;22.16;36.45;101999.28;20993931;28;20037;-76
2023/04/26 21:55:53;;;;;;;9.95;4.97;;;;;;;22.17;36.42;102040.00;20993577;28;20044;-76
2023/04/26 22:05:55;;;;;;;8.20;4.18;;;;;;;22.15;36.77;102097.97;20992937;28;20057;-77
2023/04/26 22:15:59;;;;;;;7.15;4.57;;;;;;;21.85;36.64;102058.56;20992925;28;20044;-76
2023/04/26 22:26:00;;;;;;;8.32;3.83;;;;;;;22.12;36.63;102084.56;20992123;28;20075;-77
2023/04/26 22:36:02;;;;;;;6.20;4.03;;;;;;;21.94;36.50;102057.00;20992645;28;20055;-75
2023/04/26 22:46:03;;;;;;;6.32;3.60;;;;;;;22.04;36.45;102079.44;20991488;28;20032;-76
2023/04/26 22:56:05;;;;;;;7.10;3.30;;;;;;;22.09;36.80;102093.44;20995331;28;20047;-76
2023/04/26 23:06:09;;;;;;;5.25;3.15;;;;;;;21.81;37.12;102047.97;21006387;28;20066;-76
2023/04/26 23:16:10;;;;;;;4.70;2.88;;;;;;;21.93;36.82;102089.59;21005553;28;20364;-76
2023/04/26 23:26:13;;;;;;;4.85;3.47;;;;;;;22.05;37.13;102118.19;21004663;28;20048;-76
2023/04/26 23:36:14;;;;;;;7.10;3.20;;;;;;;21.90;36.76;102097.63;21003771;28;20039;-75
2023/04/26 23:46:15;;;;;;;4.65;2.83;;;;;;;21.96;36.85;102093.81;21001440;28;20048;-75
2023/04/26 23:56:17;;;;;;;5.20;3.08;;;;;;;21.96;37.15;102093.81;20989542;28;20115;-76
